createdAt,value
2022-09-18T00:00:12.700Z,3.80
2022-09-18T00:02:40.826Z,3.00
2022-09-18T00:05:09.043Z,3.27
2022-09-18T00:07:36.632Z,3.17
2022-09-18T00:10:06.818Z,3.10
2022-09-18T00:12:34.588Z,3.37
2022-09-18T00:15:02.029Z,3.57
2022-09-18T00:17:29.696Z,3.83
2022-09-18T00:19:57.395Z,3.67
2022-09-18T00:22:25.771Z,3.33
2022-09-18T00:24:53.328Z,3.77
2022-09-18T00:27:22.363Z,3.23
2022-09-18T00:29:49.870Z,3.80
2022-09-18T00:32:18.831Z,3.10
2022-09-18T00:34:46.655Z,3.30
2022-09-18T00:37:14.305Z,3.77
2022-09-18T00:39:42.025Z,3.50
2022-09-18T00:42:12.656Z,3.80
2022-09-18T00:44:42.359Z,3.40
2022-09-18T00:47:19.137Z,3.53
2022-09-18T00:49:48.813Z,3.47
2022-09-18T00:52:18.115Z,4.03
2022-09-18T00:54:49.456Z,3.10
2022-09-18T00:57:17.941Z,2.70
2022-09-18T00:59:47.398Z,2.87
2022-09-18T01:02:15.562Z,2.33
2022-09-18T01:04:43.058Z,2.37
2022-09-18T01:07:15.314Z,2.97
2022-09-18T01:09:48.229Z,2.47
2022-09-18T01:12:21.001Z,1.80
2022-09-18T01:14:54.012Z,2.03
2022-09-18T01:17:25.471Z,2.30
2022-09-18T01:20:01.619Z,1.80
2022-09-18T01:22:37.063Z,1.87
2022-09-18T01:25:14.159Z,1.50
2022-09-18T01:27:51.151Z,1.60
2022-09-18T01:30:19.248Z,1.83
2022-09-18T01:32:48.406Z,1.57
2022-09-18T01:35:40.140Z,1.50
2022-09-18T01:38:10.022Z,1.10
2022-09-18T01:40:41.678Z,1.40
2022-09-18T01:43:12.494Z,1.60
2022-09-18T01:45:44.555Z,1.47
2022-09-18T01:48:19.038Z,1.33
2022-09-18T01:50:50.862Z,1.23
2022-09-18T01:53:20.222Z,1.17
2022-09-18T01:55:51.303Z,1.10
2022-09-18T01:58:23.591Z,1.30
2022-09-18T02:00:54.137Z,1.10
2022-09-18T02:03:25.403Z,1.30
2022-09-18T02:05:55.269Z,1.00
2022-09-18T02:08:26.110Z,0.90
2022-09-18T02:11:00.079Z,0.90
2022-09-18T02:13:31.669Z,1.17
2022-09-18T02:16:02.226Z,1.27
2022-09-18T02:18:31.498Z,1.40
2022-09-18T02:20:59.541Z,1.07
2022-09-18T02:23:28.254Z,1.23
2022-09-18T02:25:56.895Z,1.57
2022-09-18T02:28:26.050Z,1.63
2022-09-18T02:30:55.798Z,1.40
2022-09-18T02:33:27.765Z,1.70
2022-09-18T02:36:03.544Z,1.80
2022-09-18T02:38:32.998Z,1.80
2022-09-18T02:41:04.187Z,1.60
2022-09-18T02:43:37.065Z,1.70
2022-09-18T02:46:10.391Z,2.67
2022-09-18T02:48:43.825Z,2.20
2022-09-18T02:51:13.694Z,2.47
2022-09-18T02:53:43.456Z,2.80
2022-09-18T02:56:13.845Z,3.10
2022-09-18T02:58:44.832Z,3.33
2022-09-18T03:01:15.289Z,3.50
2022-09-18T03:03:42.885Z,3.53
2022-09-18T03:06:12.143Z,3.40
2022-09-18T03:08:39.889Z,3.47
2022-09-18T03:11:07.601Z,3.70
2022-09-18T03:13:35.335Z,3.93
2022-09-18T03:16:03.986Z,3.90
2022-09-18T03:18:32.853Z,3.50
2022-09-18T03:21:00.590Z,4.00
2022-09-18T03:23:28.297Z,3.90
2022-09-18T03:26:07.312Z,4.57
2022-09-18T03:28:35.346Z,3.97
2022-09-18T03:31:03.306Z,4.17
2022-09-18T03:33:34.867Z,4.13
2022-09-18T03:36:02.938Z,4.00
2022-09-18T03:38:30.937Z,4.23
2022-09-18T03:40:58.696Z,4.10
2022-09-18T03:43:26.667Z,3.63
2022-09-18T03:45:54.515Z,3.73
2022-09-18T03:48:22.668Z,3.87
2022-09-18T03:50:53.050Z,3.53
2022-09-18T03:53:21.945Z,4.70
2022-09-18T03:56:08.225Z,4.63
2022-09-18T03:59:02.017Z,4.70
2022-09-18T04:01:37.142Z,4.77
2022-09-18T04:04:25.080Z,5.13
2022-09-18T04:07:32.143Z,5.23
2022-09-18T04:10:21.268Z,5.00
2022-09-18T04:12:48.930Z,5.20
2022-09-18T04:15:25.396Z,5.43
2022-09-18T04:17:53.046Z,5.47
2022-09-18T04:20:21.063Z,5.00
2022-09-18T04:22:50.096Z,5.10
2022-09-18T04:25:18.164Z,5.07
2022-09-18T04:27:47.390Z,5.53
2022-09-18T04:30:16.157Z,5.33
2022-09-18T04:32:45.698Z,6.17
2022-09-18T04:35:14.178Z,5.93
2022-09-18T04:37:44.159Z,5.90
2022-09-18T04:40:14.284Z,5.67
2022-09-18T04:42:42.305Z,6.37
2022-09-18T04:45:10.898Z,5.30
2022-09-18T04:47:41.362Z,5.00
2022-09-18T04:50:11.043Z,4.63
2022-09-18T04:52:58.584Z,4.80
2022-09-18T04:55:29.710Z,4.87
2022-09-18T04:57:57.411Z,4.20
2022-09-18T05:00:25.068Z,4.23
2022-09-18T05:02:53.557Z,3.60
2022-09-18T05:05:24.781Z,3.37
2022-09-18T05:07:54.046Z,3.43
2022-09-18T05:10:23.403Z,3.43
2022-09-18T05:12:54.348Z,4.20
2022-09-18T05:15:22.055Z,3.00
2022-09-18T05:17:58.848Z,4.23
2022-09-18T05:20:26.503Z,3.33
2022-09-18T05:22:55.848Z,3.33
2022-09-18T05:25:25.029Z,2.73
2022-09-18T05:27:57.498Z,3.30
2022-09-18T05:30:28.703Z,2.90
2022-09-18T05:32:59.675Z,3.23
2022-09-18T05:35:31.228Z,3.50
2022-09-18T05:37:59.899Z,2.90
2022-09-18T05:40:31.138Z,2.80
2022-09-18T05:43:03.038Z,2.63
2022-09-18T05:45:32.816Z,2.93
2022-09-18T05:48:02.976Z,2.80
2022-09-18T05:50:32.011Z,2.97
2022-09-18T05:53:00.811Z,2.90
2022-09-18T05:55:33.615Z,2.63
2022-09-18T05:58:03.501Z,2.10
2022-09-18T06:00:32.292Z,2.83
2022-09-18T06:03:08.536Z,3.00
2022-09-18T06:05:37.611Z,2.83
2022-09-18T06:08:05.907Z,2.80
2022-09-18T06:10:33.921Z,2.87
2022-09-18T06:13:03.317Z,2.50
2022-09-18T06:15:31.088Z,3.00
2022-09-18T06:18:00.712Z,2.63
2022-09-18T06:20:28.591Z,2.67
2022-09-18T06:22:59.006Z,1.90
2022-09-18T06:25:36.726Z,2.20
2022-09-18T06:28:06.628Z,2.03
2022-09-18T06:30:35.133Z,2.30
2022-09-18T06:33:05.174Z,2.37
2022-09-18T06:35:33.299Z,2.80
2022-09-18T06:38:01.502Z,3.00
2022-09-18T06:40:37.844Z,2.40
2022-09-18T06:43:30.134Z,2.40
2022-09-18T06:46:15.405Z,2.00
2022-09-18T06:48:48.851Z,4.40
2022-09-18T06:51:16.802Z,2.77
2022-09-18T06:54:01.790Z,2.37
2022-09-18T06:56:29.620Z,2.57
2022-09-18T06:58:58.444Z,2.33
2022-09-18T07:01:26.396Z,2.03
2022-09-18T07:04:05.803Z,2.57
2022-09-18T07:06:38.555Z,2.37
2022-09-18T07:09:06.725Z,2.60
2022-09-18T07:11:50.184Z,2.50
2022-09-18T07:14:19.275Z,2.10
2022-09-18T07:16:49.432Z,2.97
2022-09-18T07:19:18.081Z,2.03
2022-09-18T07:21:46.129Z,2.00
2022-09-18T07:24:13.753Z,2.10
2022-09-18T07:26:41.939Z,2.50
2022-09-18T07:29:10.683Z,1.97
2022-09-18T07:31:39.941Z,2.03
2022-09-18T07:34:10.182Z,2.40
2022-09-18T07:36:37.746Z,2.70
2022-09-18T07:39:05.725Z,1.90
2022-09-18T07:41:46.652Z,1.90
2022-09-18T07:44:14.320Z,1.93
2022-09-18T07:46:43.257Z,2.20
2022-09-18T07:49:12.311Z,2.00
2022-09-18T07:51:41.942Z,2.00
2022-09-18T07:54:10.541Z,2.13
2022-09-18T07:56:58.965Z,1.47
2022-09-18T07:59:30.178Z,2.37
2022-09-18T08:02:03.286Z,1.53
2022-09-18T08:04:32.997Z,1.97
2022-09-18T08:07:29.830Z,1.70
2022-09-18T08:10:08.309Z,1.73
2022-09-18T08:12:44.130Z,1.80
2022-09-18T08:15:47.256Z,1.73
2022-09-18T08:18:31.398Z,2.57
2022-09-18T08:21:18.504Z,1.33
2022-09-18T08:23:49.486Z,2.10
2022-09-18T08:26:22.038Z,1.70
2022-09-18T08:28:51.771Z,2.00
2022-09-18T08:31:19.521Z,1.70
2022-09-18T08:33:48.831Z,1.73
2022-09-18T08:36:16.729Z,2.20
2022-09-18T08:38:57.186Z,1.93
2022-09-18T08:41:49.106Z,1.80
2022-09-18T08:44:24.358Z,2.37
2022-09-18T08:46:54.477Z,1.70
2022-09-18T08:49:27.035Z,1.80
2022-09-18T08:52:01.087Z,1.80
2022-09-18T08:54:34.114Z,1.97
2022-09-18T08:57:23.179Z,2.33
2022-09-18T09:00:02.858Z,1.90
2022-09-18T09:02:39.256Z,1.57
2022-09-18T09:05:11.538Z,1.90
2022-09-18T09:07:54.039Z,2.37
2022-09-18T09:10:37.027Z,1.70
2022-09-18T09:13:14.259Z,1.83
2022-09-18T09:15:48.207Z,1.80
2022-09-18T09:18:17.914Z,1.37
2022-09-18T09:20:53.908Z,2.23
2022-09-18T09:23:34.763Z,1.83
2022-09-18T09:26:12.758Z,1.67
2022-09-18T09:29:19.840Z,1.50
2022-09-18T09:32:08.478Z,1.50
2022-09-18T09:35:05.030Z,1.70
2022-09-18T09:37:48.300Z,1.70
2022-09-18T09:40:19.840Z,1.83
2022-09-18T09:42:50.616Z,2.07
2022-09-18T09:45:24.849Z,1.57
2022-09-18T09:47:56.736Z,1.50
2022-09-18T09:50:34.365Z,1.40
2022-09-18T09:53:07.270Z,2.00
2022-09-18T09:55:38.125Z,1.77
2022-09-18T09:58:13.607Z,1.87
2022-09-18T10:00:48.127Z,1.60
2022-09-18T10:03:30.311Z,1.47
2022-09-18T10:06:03.596Z,2.30
2022-09-18T10:08:36.079Z,2.03
2022-09-18T10:11:08.709Z,4.00
2022-09-18T10:13:39.136Z,1.80
2022-09-18T10:16:10.669Z,4.70
2022-09-18T10:18:40.649Z,2.70
2022-09-18T10:21:10.020Z,2.00
2022-09-18T10:23:41.144Z,1.67
2022-09-18T10:26:12.373Z,1.70
2022-09-18T10:28:40.006Z,1.80
2022-09-18T10:31:10.824Z,1.57
2022-09-18T10:33:43.172Z,2.20
2022-09-18T10:36:22.877Z,1.80
2022-09-18T10:38:52.044Z,1.30
2022-09-18T10:41:29.224Z,1.83
2022-09-18T10:43:58.706Z,1.70
2022-09-18T10:46:30.214Z,1.77
2022-09-18T10:48:59.499Z,1.73
2022-09-18T10:51:29.143Z,1.60
2022-09-18T10:54:06.577Z,1.30
2022-09-18T10:56:53.558Z,2.30
2022-09-18T10:59:36.474Z,1.60
2022-09-18T11:02:05.818Z,2.43
2022-09-18T11:04:36.306Z,1.60
2022-09-18T11:07:07.428Z,2.07
2022-09-18T11:09:40.266Z,2.13
2022-09-18T11:12:15.571Z,12.73
2022-09-18T11:14:47.389Z,3.03
2022-09-18T11:17:26.215Z,14.40
2022-09-18T11:19:55.670Z,2.13
2022-09-18T11:22:39.928Z,2.40
2022-09-18T11:25:21.030Z,2.80
2022-09-18T11:27:52.054Z,1.80
2022-09-18T11:30:23.018Z,1.80
2022-09-18T11:32:53.301Z,1.83
2022-09-18T11:35:23.464Z,1.40
2022-09-18T11:37:52.527Z,1.60
2022-09-18T11:40:22.832Z,1.83
2022-09-18T11:42:54.058Z,1.77
2022-09-18T11:45:29.570Z,2.17
2022-09-18T11:48:01.010Z,2.23
2022-09-18T11:50:32.325Z,2.20
2022-09-18T11:53:01.175Z,1.97
2022-09-18T11:55:34.651Z,1.43
2022-09-18T11:58:04.014Z,2.50
2022-09-18T12:00:35.689Z,1.60
2022-09-18T12:03:08.388Z,1.80
2022-09-18T12:05:44.624Z,1.90
2022-09-18T12:08:15.819Z,2.33
2022-09-18T12:10:50.215Z,2.20
2022-09-18T12:13:28.660Z,1.40
2022-09-18T12:15:59.910Z,1.83
2022-09-18T12:18:30.505Z,1.20
2022-09-18T12:21:02.677Z,1.60
2022-09-18T12:23:32.216Z,2.10
2022-09-18T12:26:10.430Z,1.50
2022-09-18T12:28:49.398Z,1.30
2022-09-18T12:31:20.384Z,1.67
2022-09-18T12:33:53.794Z,1.83
2022-09-18T12:36:36.209Z,1.50
2022-09-18T12:39:14.722Z,1.40
2022-09-18T12:41:53.745Z,2.80
2022-09-18T12:44:28.640Z,1.07
2022-09-18T12:47:03.682Z,15.37
2022-09-18T12:49:49.382Z,1.47
2022-09-18T12:52:23.892Z,1.30
2022-09-18T12:55:16.489Z,1.40
2022-09-18T12:57:51.185Z,1.23
2022-09-18T13:00:22.301Z,1.30
2022-09-18T13:02:52.448Z,1.00
2022-09-18T13:05:23.528Z,1.53
2022-09-18T13:07:52.685Z,1.40
2022-09-18T13:10:22.902Z,1.70
2022-09-18T13:13:03.365Z,1.30
2022-09-18T13:15:34.093Z,1.63
2022-09-18T13:18:08.534Z,1.23
2022-09-18T13:20:39.123Z,1.10
2022-09-18T13:23:07.316Z,1.60
2022-09-18T13:25:36.749Z,1.90
2022-09-18T13:28:08.249Z,1.47
2022-09-18T13:30:36.374Z,1.20
2022-09-18T13:33:04.884Z,1.10
2022-09-18T13:35:33.794Z,0.83
2022-09-18T13:38:14.410Z,1.03
2022-09-18T13:40:42.887Z,1.20
2022-09-18T13:43:20.649Z,1.10
2022-09-18T13:45:48.263Z,0.87
2022-09-18T13:48:19.814Z,1.27
2022-09-18T13:50:53.633Z,1.00
2022-09-18T13:53:31.915Z,1.30
2022-09-18T13:56:02.223Z,0.90
2022-09-18T13:58:50.701Z,1.10
2022-09-18T14:01:48.761Z,1.00
2022-09-18T14:04:31.248Z,1.00
2022-09-18T14:06:58.973Z,1.10
2022-09-18T14:09:28.853Z,0.83
2022-09-18T14:12:11.391Z,0.73
2022-09-18T14:14:41.023Z,0.90
2022-09-18T14:17:13.066Z,0.93
2022-09-18T14:19:41.601Z,1.00
2022-09-18T14:22:22.963Z,1.00
2022-09-18T14:24:58.152Z,0.90
2022-09-18T14:27:43.842Z,0.70
2022-09-18T14:30:18.029Z,0.90
2022-09-18T14:32:52.894Z,0.90
2022-09-18T14:35:24.639Z,1.00
2022-09-18T14:37:52.999Z,1.10
2022-09-18T14:40:22.586Z,0.80
2022-09-18T14:42:50.818Z,1.20
2022-09-18T14:45:25.518Z,1.03
2022-09-18T14:47:53.250Z,1.40
2022-09-18T14:50:29.151Z,1.57
2022-09-18T14:52:57.333Z,1.60
2022-09-18T14:55:28.352Z,1.83
2022-09-18T14:57:57.818Z,1.93
2022-09-18T15:00:27.294Z,1.03
2022-09-18T15:02:56.424Z,1.67
2022-09-18T15:05:24.532Z,1.30
2022-09-18T15:07:54.029Z,1.40
2022-09-18T15:10:22.431Z,1.70
2022-09-18T15:12:50.069Z,1.10
2022-09-18T15:15:32.986Z,1.23
2022-09-18T15:18:02.052Z,1.77
2022-09-18T15:20:30.524Z,1.00
2022-09-18T15:22:58.413Z,1.27
2022-09-18T15:25:28.584Z,1.20
2022-09-18T15:27:57.376Z,1.40
2022-09-18T15:30:25.897Z,3.50
2022-09-18T15:32:56.498Z,22.57
2022-09-18T15:35:25.862Z,18.63
2022-09-18T15:37:54.497Z,10.07
2022-09-18T15:40:26.965Z,20.57
2022-09-18T15:42:58.262Z,5.73
2022-09-18T15:45:27.681Z,13.10
2022-09-18T15:47:58.695Z,12.90
2022-09-18T15:50:34.479Z,19.50
2022-09-18T15:53:05.871Z,7.60
2022-09-18T15:55:35.061Z,2.20
2022-09-18T15:58:03.757Z,1.30
2022-09-18T16:00:32.204Z,1.40
2022-09-18T16:03:01.912Z,1.17
2022-09-18T16:05:30.232Z,1.10
2022-09-18T16:07:58.949Z,1.20
2022-09-18T16:10:46.490Z,0.90
2022-09-18T16:13:29.393Z,1.07
2022-09-18T16:16:11.852Z,1.57
2022-09-18T16:18:50.502Z,0.90
2022-09-18T16:21:18.527Z,1.50
2022-09-18T16:23:50.678Z,1.60
2022-09-18T16:26:24.692Z,1.20
2022-09-18T16:28:53.504Z,1.40
2022-09-18T16:31:22.376Z,1.40
2022-09-18T16:33:57.398Z,1.30
2022-09-18T16:36:30.542Z,1.80
2022-09-18T16:38:58.990Z,1.70
2022-09-18T16:41:26.538Z,1.50
2022-09-18T16:43:54.239Z,1.77
2022-09-18T16:46:24.053Z,1.33
2022-09-18T16:48:51.965Z,1.40
2022-09-18T16:51:21.855Z,1.90
2022-09-18T16:53:49.730Z,1.33
2022-09-18T16:56:21.428Z,1.60
2022-09-18T16:58:49.744Z,2.07
2022-09-18T17:01:18.244Z,1.60
2022-09-18T17:03:45.929Z,2.10
2022-09-18T17:06:18.265Z,1.37
2022-09-18T17:08:48.171Z,1.50
2022-09-18T17:11:15.699Z,1.90
2022-09-18T17:13:43.268Z,0.40
2022-09-18T17:16:10.903Z,0.60
2022-09-18T17:18:38.881Z,0.60
2022-09-18T17:21:06.655Z,0.63
2022-09-18T17:23:34.677Z,0.50
2022-09-18T17:26:07.549Z,0.40
2022-09-18T17:28:35.263Z,0.30
2022-09-18T17:31:08.913Z,0.30
2022-09-18T17:33:36.734Z,0.30
2022-09-18T17:36:05.591Z,0.50
2022-09-18T17:38:34.053Z,0.70
2022-09-18T17:41:02.917Z,0.80
2022-09-18T17:43:31.784Z,0.73
2022-09-18T17:46:00.097Z,0.40
2022-09-18T17:48:28.769Z,0.40
2022-09-18T17:50:57.279Z,0.30
2022-09-18T17:53:24.955Z,0.50
2022-09-18T17:55:55.010Z,0.30
2022-09-18T17:58:22.545Z,0.40
2022-09-18T18:00:51.418Z,0.40
2022-09-18T18:03:19.367Z,0.50
2022-09-18T18:05:51.411Z,0.50
2022-09-18T18:08:19.251Z,0.43
2022-09-18T18:10:46.926Z,0.83
2022-09-18T18:13:18.178Z,0.40
2022-09-18T18:15:45.720Z,0.30
2022-09-18T18:18:14.556Z,0.70
2022-09-18T18:20:42.316Z,0.60
2022-09-18T18:23:14.216Z,0.40
2022-09-18T18:25:42.229Z,0.40
2022-09-18T18:28:11.913Z,0.30
2022-09-18T18:30:39.765Z,0.40
2022-09-18T18:33:07.506Z,0.40
2022-09-18T18:35:38.055Z,0.40
2022-09-18T18:38:05.710Z,0.70
2022-09-18T18:40:33.533Z,0.40
2022-09-18T18:43:01.458Z,0.40
2022-09-18T18:45:29.928Z,0.30
2022-09-18T18:47:57.650Z,1.30
2022-09-18T18:50:25.167Z,0.40
2022-09-18T18:52:54.621Z,0.40
2022-09-18T18:55:22.480Z,0.40
2022-09-18T18:57:51.134Z,0.40
2022-09-18T19:00:19.375Z,0.50
2022-09-18T19:02:48.732Z,0.53
2022-09-18T19:05:16.308Z,0.40
2022-09-18T19:07:44.214Z,0.60
2022-09-18T19:10:13.254Z,0.47
2022-09-18T19:12:40.763Z,0.30
2022-09-18T19:15:09.088Z,0.30
2022-09-18T19:17:36.814Z,0.60
2022-09-18T19:20:25.310Z,1.07
2022-09-18T19:22:56.902Z,0.67
2022-09-18T19:25:26.705Z,0.50
2022-09-18T19:27:55.252Z,0.40
2022-09-18T19:30:22.753Z,0.80
2022-09-18T19:32:53.703Z,0.90
2022-09-18T19:35:21.275Z,0.50
2022-09-18T19:37:49.539Z,0.60
2022-09-18T19:40:17.582Z,0.60
2022-09-18T19:42:48.313Z,0.73
2022-09-18T19:45:18.804Z,0.43
2022-09-18T19:47:48.545Z,0.40
2022-09-18T19:50:27.693Z,0.43
2022-09-18T19:52:55.231Z,0.40
2022-09-18T19:55:23.098Z,0.70
2022-09-18T19:57:53.951Z,0.60
2022-09-18T20:00:21.523Z,0.83
2022-09-18T20:02:49.010Z,0.87
2022-09-18T20:05:16.673Z,0.40
2022-09-18T20:07:44.148Z,0.90
2022-09-18T20:10:12.945Z,0.70
2022-09-18T20:12:41.133Z,0.40
2022-09-18T20:15:11.292Z,0.60
2022-09-18T20:17:39.352Z,0.90
2022-09-18T20:20:08.997Z,0.40
2022-09-18T20:22:39.795Z,0.50
2022-09-18T20:25:08.755Z,0.47
2022-09-18T20:27:38.567Z,0.50
2022-09-18T20:30:07.245Z,0.30
2022-09-18T20:32:36.466Z,1.70
2022-09-18T20:35:04.365Z,2.70
2022-09-18T20:37:32.747Z,2.00
2022-09-18T20:40:02.515Z,2.33
2022-09-18T20:42:31.503Z,2.60
2022-09-18T20:45:02.217Z,2.37
2022-09-18T20:47:34.854Z,3.20
2022-09-18T20:50:07.104Z,2.73
2022-09-18T20:52:36.213Z,2.73
2022-09-18T20:55:08.675Z,2.50
2022-09-18T20:57:36.903Z,2.80
2022-09-18T21:00:05.688Z,2.70
2022-09-18T21:02:35.351Z,3.30
2022-09-18T21:05:07.303Z,3.30
2022-09-18T21:07:35.418Z,3.53
2022-09-18T21:10:02.979Z,3.73
2022-09-18T21:12:38.336Z,2.60
2022-09-18T21:15:06.609Z,3.20
2022-09-18T21:17:34.149Z,3.10
2022-09-18T21:20:02.322Z,3.00
2022-09-18T21:22:31.842Z,3.67
2022-09-18T21:24:59.867Z,3.47
2022-09-18T21:27:28.011Z,4.00
2022-09-18T21:29:56.456Z,4.00
2022-09-18T21:32:23.964Z,5.53
2022-09-18T21:34:52.738Z,4.83
2022-09-18T21:37:20.407Z,5.60
2022-09-18T21:39:50.307Z,5.63
2022-09-18T21:42:18.285Z,4.40
2022-09-18T21:44:45.773Z,4.63
2022-09-18T21:47:13.737Z,3.90
2022-09-18T21:49:41.235Z,4.23
2022-09-18T21:52:09.056Z,4.50
2022-09-18T21:54:37.005Z,4.43
2022-09-18T21:57:07.110Z,4.03
2022-09-18T21:59:36.605Z,4.30
2022-09-18T22:02:06.106Z,4.70
2022-09-18T22:04:33.936Z,5.70
2022-09-18T22:07:01.847Z,4.33
2022-09-18T22:09:30.401Z,4.23
2022-09-18T22:11:59.171Z,4.30
2022-09-18T22:14:31.463Z,3.70
2022-09-18T22:16:59.854Z,4.20
2022-09-18T22:19:27.822Z,4.70
2022-09-18T22:21:57.020Z,4.20
2022-09-18T22:24:25.322Z,4.23
2022-09-18T22:26:55.638Z,3.43
2022-09-18T22:29:24.423Z,4.20
2022-09-18T22:31:53.400Z,3.60
2022-09-18T22:34:23.050Z,3.90
2022-09-18T22:36:51.587Z,3.40
2022-09-18T22:39:20.049Z,4.70
2022-09-18T22:41:47.788Z,7.50
2022-09-18T22:44:15.936Z,5.73
2022-09-18T22:46:44.303Z,5.10
2022-09-18T22:49:14.691Z,4.07
2022-09-18T22:51:42.481Z,5.40
2022-09-18T22:54:09.955Z,4.03
2022-09-18T22:56:38.748Z,5.33
2022-09-18T22:59:06.583Z,4.70
2022-09-18T23:01:35.279Z,4.00
2022-09-18T23:04:03.620Z,5.40
2022-09-18T23:06:33.793Z,4.30
2022-09-18T23:09:03.297Z,4.87
2022-09-18T23:11:31.600Z,4.73
2022-09-18T23:14:00.389Z,5.60
2022-09-18T23:16:28.786Z,4.60
2022-09-18T23:18:57.950Z,3.97
2022-09-18T23:21:27.294Z,4.87
2022-09-18T23:23:56.776Z,4.50
2022-09-18T23:26:27.201Z,4.40
2022-09-18T23:28:55.494Z,4.17
2022-09-18T23:31:24.172Z,4.43
2022-09-18T23:33:53.591Z,4.00
2022-09-18T23:36:22.267Z,4.33
2022-09-18T23:38:53.786Z,3.87
2022-09-18T23:41:22.961Z,4.27
2022-09-18T23:43:51.255Z,3.30
2022-09-18T23:46:19.314Z,3.90
2022-09-18T23:48:47.421Z,3.83
2022-09-18T23:51:16.358Z,3.63
2022-09-18T23:53:43.903Z,3.60
2022-09-18T23:56:13.094Z,3.60
2022-09-18T23:58:42.090Z,3.73
